T24 EFTP-EFHK
Flight info
| Callsign | T24 |
|---|---|
| Flight time | 0h 33m |
| Altitude | 21000 |
| Route | ENETI Y362 LAKUT |
| Aircraft | PC12/L-SDFGRY/H |
Departure
| Time | 2026-04-20 17:13 |
|---|---|
| Airport | Tampere-Pirkkala Airport (EFTP) |
Arrival
| Time | 2026-04-20 17:46 |
|---|---|
| Airport | Helsinki Vantaa Airport (EFHK) |
| Time | Latitude | Longitude | Altitude | Speed | Heading |
|---|---|---|---|---|---|
| 2026-04-20 17:10 | 61.40728 | 23.61406 | 370 ft | 0 kts | 246° |
| 2026-04-20 17:10 | 61.40715 | 23.61346 | 369 ft | 14 kts | 250° |
| 2026-04-20 17:11 | 61.40720 | 23.61066 | 374 ft | 17 kts | 278° |
| 2026-04-20 17:11 | 61.40715 | 23.60817 | 371 ft | 19 kts | 251° |
| 2026-04-20 17:11 | 61.40717 | 23.60501 | 374 ft | 24 kts | 294° |
| 2026-04-20 17:11 | 61.40840 | 23.60212 | 376 ft | 29 kts | 315° |
| 2026-04-20 17:12 | 61.40938 | 23.59916 | 384 ft | 23 kts | 295° |
| 2026-04-20 17:12 | 61.40974 | 23.59578 | 383 ft | 26 kts | 272° |
| 2026-04-20 17:12 | 61.41005 | 23.59268 | 381 ft | 15 kts | 332° |
| 2026-04-20 17:12 | 61.41121 | 23.59181 | 393 ft | 15 kts | 20° |
| 2026-04-20 17:13 | 61.41139 | 23.59228 | 393 ft | 8 kts | 65° |
| 2026-04-20 17:13 | 61.41277 | 23.59838 | 391 ft | 82 kts | 64° |
| 2026-04-20 17:13 | 61.41554 | 23.61087 | 720 ft | 107 kts | 63° |
| 2026-04-20 17:13 | 61.41887 | 23.62635 | 1195 ft | 125 kts | 65° |
| 2026-04-20 17:14 | 61.41781 | 23.64494 | 1892 ft | 142 kts | 123° |
| 2026-04-20 17:14 | 61.41155 | 23.66077 | 2757 ft | 144 kts | 123° |
| 2026-04-20 17:14 | 61.40536 | 23.67710 | 3650 ft | 143 kts | 124° |
| 2026-04-20 17:14 | 61.39912 | 23.69313 | 4534 ft | 142 kts | 124° |
| 2026-04-20 17:15 | 61.39284 | 23.70918 | 5351 ft | 149 kts | 124° |
| 2026-04-20 17:15 | 61.38570 | 23.72743 | 5877 ft | 174 kts | 125° |
| 2026-04-20 17:15 | 61.37745 | 23.74838 | 6314 ft | 198 kts | 126° |
| 2026-04-20 17:15 | 61.36731 | 23.76891 | 6896 ft | 208 kts | 143° |
| 2026-04-20 17:16 | 61.35392 | 23.78132 | 7542 ft | 215 kts | 162° |
| 2026-04-20 17:16 | 61.33879 | 23.78339 | 8175 ft | 223 kts | 184° |
| 2026-04-20 17:16 | 61.32372 | 23.77431 | 8807 ft | 229 kts | 200° |
| 2026-04-20 17:16 | 61.30901 | 23.76208 | 9435 ft | 232 kts | 200° |
| 2026-04-20 17:17 | 61.29384 | 23.74965 | 10098 ft | 235 kts | 199° |
| 2026-04-20 17:17 | 61.27845 | 23.73712 | 10699 ft | 239 kts | 199° |
| 2026-04-20 17:17 | 61.26817 | 23.72875 | 11104 ft | 240 kts | 199° |
| 2026-04-20 17:17 | 61.25250 | 23.71598 | 11721 ft | 243 kts | 199° |
| 2026-04-20 17:18 | 61.23671 | 23.70314 | 12317 ft | 245 kts | 199° |
| 2026-04-20 17:18 | 61.22074 | 23.69016 | 12907 ft | 248 kts | 199° |
| 2026-04-20 17:18 | 61.20459 | 23.67705 | 13494 ft | 250 kts | 198° |
| 2026-04-20 17:18 | 61.18827 | 23.66383 | 14089 ft | 253 kts | 198° |
| 2026-04-20 17:19 | 61.17181 | 23.65050 | 14615 ft | 255 kts | 198° |
| 2026-04-20 17:19 | 61.15516 | 23.63703 | 15145 ft | 257 kts | 198° |
| 2026-04-20 17:19 | 61.13841 | 23.62349 | 15677 ft | 260 kts | 198° |
| 2026-04-20 17:19 | 61.12169 | 23.60999 | 16195 ft | 262 kts | 198° |
| 2026-04-20 17:20 | 61.10463 | 23.59624 | 16714 ft | 264 kts | 198° |
| 2026-04-20 17:20 | 61.08742 | 23.58247 | 17223 ft | 266 kts | 196° |
| 2026-04-20 17:20 | 61.06942 | 23.57523 | 17699 ft | 261 kts | 177° |
| 2026-04-20 17:20 | 61.05149 | 23.57763 | 18244 ft | 257 kts | 167° |
| 2026-04-20 17:21 | 61.03368 | 23.58209 | 18735 ft | 259 kts | 167° |
| 2026-04-20 17:21 | 61.01568 | 23.58635 | 19174 ft | 261 kts | 167° |
| 2026-04-20 17:21 | 60.99759 | 23.59062 | 19606 ft | 262 kts | 166° |
| 2026-04-20 17:21 | 60.97967 | 23.59490 | 20030 ft | 264 kts | 166° |
| 2026-04-20 17:22 | 60.96130 | 23.59931 | 20449 ft | 266 kts | 166° |
| 2026-04-20 17:22 | 60.94284 | 23.60370 | 20860 ft | 267 kts | 166° |
| 2026-04-20 17:22 | 60.92432 | 23.60811 | 21231 ft | 270 kts | 166° |
| 2026-04-20 17:22 | 60.90534 | 23.61269 | 21328 ft | 280 kts | 166° |
| 2026-04-20 17:23 | 60.88569 | 23.61736 | 21338 ft | 288 kts | 166° |
| 2026-04-20 17:23 | 60.86554 | 23.62209 | 21336 ft | 294 kts | 166° |
| 2026-04-20 17:23 | 60.84511 | 23.62688 | 21334 ft | 296 kts | 166° |
| 2026-04-20 17:23 | 60.82460 | 23.63173 | 21335 ft | 297 kts | 166° |
| 2026-04-20 17:24 | 60.80401 | 23.63659 | 21331 ft | 298 kts | 166° |
| 2026-04-20 17:24 | 60.78334 | 23.64147 | 21329 ft | 298 kts | 166° |
| 2026-04-20 17:24 | 60.76269 | 23.64633 | 21330 ft | 298 kts | 166° |
| 2026-04-20 17:24 | 60.74234 | 23.65111 | 21330 ft | 298 kts | 166° |
| 2026-04-20 17:25 | 60.72171 | 23.65597 | 21326 ft | 298 kts | 166° |
| 2026-04-20 17:25 | 60.70122 | 23.66076 | 21327 ft | 295 kts | 166° |
| 2026-04-20 17:25 | 60.68077 | 23.66555 | 21324 ft | 294 kts | 166° |
| 2026-04-20 17:25 | 60.66045 | 23.67032 | 21323 ft | 294 kts | 166° |
| 2026-04-20 17:26 | 60.64013 | 23.67508 | 21321 ft | 293 kts | 166° |
| 2026-04-20 17:26 | 60.61984 | 23.67982 | 21250 ft | 296 kts | 166° |
| 2026-04-20 17:26 | 60.59919 | 23.68466 | 20986 ft | 299 kts | 167° |
| 2026-04-20 17:26 | 60.57886 | 23.68934 | 20736 ft | 296 kts | 167° |
| 2026-04-20 17:27 | 60.55839 | 23.69408 | 20505 ft | 296 kts | 167° |
| 2026-04-20 17:27 | 60.53795 | 23.69887 | 20249 ft | 296 kts | 167° |
| 2026-04-20 17:27 | 60.51753 | 23.70425 | 19989 ft | 291 kts | 161° |
| 2026-04-20 17:27 | 60.49920 | 23.71973 | 19726 ft | 283 kts | 143° |
| 2026-04-20 17:28 | 60.48380 | 23.74369 | 19467 ft | 274 kts | 129° |
| 2026-04-20 17:28 | 60.47215 | 23.77371 | 19219 ft | 269 kts | 117° |
| 2026-04-20 17:28 | 60.46180 | 23.80537 | 18979 ft | 270 kts | 118° |
| 2026-04-20 17:28 | 60.45129 | 23.83701 | 18744 ft | 270 kts | 117° |
| 2026-04-20 17:29 | 60.44385 | 23.87138 | 18471 ft | 265 kts | 102° |
| 2026-04-20 17:29 | 60.44082 | 23.90795 | 18188 ft | 261 kts | 89° |
| 2026-04-20 17:29 | 60.44191 | 23.94438 | 17910 ft | 258 kts | 80° |
| 2026-04-20 17:29 | 60.44411 | 23.98000 | 17645 ft | 256 kts | 81° |
| 2026-04-20 17:30 | 60.44615 | 24.01560 | 17355 ft | 254 kts | 81° |
| 2026-04-20 17:30 | 60.44748 | 24.05139 | 17011 ft | 255 kts | 87° |
| 2026-04-20 17:30 | 60.44645 | 24.08732 | 16665 ft | 255 kts | 90° |
| 2026-04-20 17:30 | 60.44542 | 24.12308 | 16331 ft | 254 kts | 89° |
| 2026-04-20 17:31 | 60.44445 | 24.15868 | 15988 ft | 253 kts | 89° |
| 2026-04-20 17:31 | 60.44345 | 24.19371 | 15660 ft | 251 kts | 90° |
| 2026-04-20 17:31 | 60.44241 | 24.22902 | 15332 ft | 251 kts | 90° |
| 2026-04-20 17:31 | 60.44136 | 24.26419 | 14953 ft | 251 kts | 90° |
| 2026-04-20 17:32 | 60.44030 | 24.29944 | 14486 ft | 248 kts | 89° |
| 2026-04-20 17:32 | 60.43926 | 24.33410 | 13877 ft | 246 kts | 89° |
| 2026-04-20 17:32 | 60.43821 | 24.36855 | 13200 ft | 243 kts | 89° |
| 2026-04-20 17:32 | 60.43717 | 24.40247 | 12537 ft | 241 kts | 89° |
| 2026-04-20 17:33 | 60.43614 | 24.43618 | 11890 ft | 239 kts | 89° |
| 2026-04-20 17:33 | 60.43460 | 24.46956 | 11252 ft | 239 kts | 97° |
| 2026-04-20 17:33 | 60.42883 | 24.50150 | 10635 ft | 244 kts | 113° |
| 2026-04-20 17:33 | 60.41863 | 24.52928 | 10011 ft | 249 kts | 129° |
| 2026-04-20 17:34 | 60.40540 | 24.55201 | 9346 ft | 249 kts | 135° |
| 2026-04-20 17:34 | 60.39217 | 24.57397 | 8862 ft | 244 kts | 135° |
| 2026-04-20 17:34 | 60.37913 | 24.59590 | 8458 ft | 238 kts | 135° |
| 2026-04-20 17:34 | 60.36675 | 24.61660 | 8033 ft | 226 kts | 135° |
| 2026-04-20 17:35 | 60.35490 | 24.63643 | 7625 ft | 222 kts | 135° |
| 2026-04-20 17:35 | 60.34176 | 24.65256 | 7207 ft | 227 kts | 160° |
| 2026-04-20 17:35 | 60.32601 | 24.65566 | 6808 ft | 231 kts | 182° |
| 2026-04-20 17:35 | 60.31073 | 24.64615 | 6392 ft | 232 kts | 208° |
| 2026-04-20 17:36 | 60.29841 | 24.62552 | 5972 ft | 230 kts | 228° |
| 2026-04-20 17:36 | 60.28774 | 24.60170 | 5562 ft | 229 kts | 229° |
| 2026-04-20 17:36 | 60.27706 | 24.57816 | 5162 ft | 226 kts | 228° |
| 2026-04-20 17:36 | 60.26648 | 24.55521 | 5011 ft | 221 kts | 229° |
| 2026-04-20 17:37 | 60.25980 | 24.52781 | 4990 ft | 223 kts | 268° |
| 2026-04-20 17:37 | 60.26193 | 24.49751 | 5009 ft | 219 kts | 289° |
| 2026-04-20 17:37 | 60.26305 | 24.46701 | 4995 ft | 226 kts | 258° |
| 2026-04-20 17:37 | 60.25514 | 24.43971 | 4995 ft | 227 kts | 232° |
| 2026-04-20 17:38 | 60.24480 | 24.41574 | 4994 ft | 226 kts | 224° |
| 2026-04-20 17:38 | 60.23070 | 24.40331 | 4919 ft | 226 kts | 181° |
| 2026-04-20 17:38 | 60.21619 | 24.41198 | 4728 ft | 216 kts | 140° |
| 2026-04-20 17:38 | 60.20533 | 24.43182 | 4576 ft | 212 kts | 131° |
| 2026-04-20 17:39 | 60.19499 | 24.45282 | 4420 ft | 211 kts | 130° |
| 2026-04-20 17:39 | 60.18794 | 24.47730 | 4230 ft | 201 kts | 95° |
| 2026-04-20 17:39 | 60.18872 | 24.50483 | 4073 ft | 196 kts | 78° |
| 2026-04-20 17:39 | 60.19092 | 24.53186 | 3920 ft | 195 kts | 76° |
| 2026-04-20 17:40 | 60.19505 | 24.55717 | 3760 ft | 183 kts | 65° |
| 2026-04-20 17:40 | 60.19983 | 24.58019 | 3592 ft | 175 kts | 64° |
| 2026-04-20 17:40 | 60.20454 | 24.60264 | 3427 ft | 173 kts | 63° |
| 2026-04-20 17:40 | 60.20976 | 24.62410 | 3264 ft | 173 kts | 60° |
| 2026-04-20 17:41 | 60.21521 | 24.64552 | 3075 ft | 171 kts | 60° |
| 2026-04-20 17:41 | 60.22058 | 24.66676 | 2886 ft | 170 kts | 60° |
| 2026-04-20 17:41 | 60.22589 | 24.68791 | 2704 ft | 169 kts | 60° |
| 2026-04-20 17:41 | 60.23101 | 24.70848 | 2512 ft | 157 kts | 60° |
| 2026-04-20 17:42 | 60.23570 | 24.72779 | 2319 ft | 150 kts | 62° |
| 2026-04-20 17:42 | 60.24112 | 24.74488 | 2273 ft | 145 kts | 47° |
| 2026-04-20 17:42 | 60.24783 | 24.76055 | 2090 ft | 146 kts | 47° |
| 2026-04-20 17:42 | 60.25422 | 24.77512 | 1901 ft | 133 kts | 46° |
| 2026-04-20 17:43 | 60.25982 | 24.78750 | 1717 ft | 109 kts | 45° |
| 2026-04-20 17:43 | 60.26469 | 24.79806 | 1568 ft | 100 kts | 44° |
| 2026-04-20 17:43 | 60.26923 | 24.80800 | 1449 ft | 93 kts | 45° |
| 2026-04-20 17:43 | 60.27338 | 24.81717 | 1325 ft | 84 kts | 44° |
| 2026-04-20 17:44 | 60.27715 | 24.82536 | 1212 ft | 77 kts | 44° |
| 2026-04-20 17:44 | 60.28079 | 24.83329 | 1106 ft | 78 kts | 44° |
| 2026-04-20 17:44 | 60.28453 | 24.84148 | 1006 ft | 81 kts | 43° |
| 2026-04-20 17:44 | 60.28830 | 24.84984 | 883 ft | 79 kts | 46° |
| 2026-04-20 17:45 | 60.29199 | 24.85784 | 781 ft | 79 kts | 41° |
| 2026-04-20 17:45 | 60.29595 | 24.86650 | 676 ft | 89 kts | 44° |
| 2026-04-20 17:45 | 60.29999 | 24.87579 | 544 ft | 84 kts | 46° |
| 2026-04-20 17:45 | 60.30389 | 24.88409 | 500 ft | 83 kts | 44° |
| 2026-04-20 17:46 | 60.30823 | 24.89363 | 381 ft | 95 kts | 44° |
| 2026-04-20 17:46 | 60.31264 | 24.90314 | 208 ft | 90 kts | 44° |
| 2026-04-20 17:46 | 60.31647 | 24.91154 | 143 ft | 70 kts | 47° |
| 2026-04-20 17:46 | 60.31878 | 24.91667 | 146 ft | 20 kts | 48° |
| 2026-04-20 17:47 | 60.31948 | 24.91859 | 148 ft | 19 kts | 75° |
| 2026-04-20 17:47 | 60.31856 | 24.92126 | 154 ft | 22 kts | 135° |
| 2026-04-20 17:47 | 60.31743 | 24.92340 | 158 ft | 28 kts | 137° |
| 2026-04-20 17:47 | 60.31573 | 24.92648 | 162 ft | 32 kts | 138° |
| 2026-04-20 17:48 | 60.31467 | 24.92843 | 161 ft | 11 kts | 136° |
| 2026-04-20 17:48 | 60.31407 | 24.92962 | 160 ft | 14 kts | 119° |
| 2026-04-20 17:48 | 60.31454 | 24.93082 | 163 ft | 12 kts | 340° |
| 2026-04-20 17:48 | 60.31518 | 24.93087 | 163 ft | 9 kts | 52° |
| 2026-04-20 17:49 | 60.31517 | 24.93148 | 163 ft | 7 kts | 141° |
| 2026-04-20 17:49 | 60.31513 | 24.93155 | 163 ft | 0 kts | 142° |